createdAt,value
2019-03-05T00:01:51.764Z,8.90
2019-03-05T00:04:20.378Z,8.23
2019-03-05T00:06:48.977Z,11.93
2019-03-05T00:09:19.344Z,8.00
2019-03-05T00:11:48.280Z,8.53
2019-03-05T00:14:18.881Z,8.93
2019-03-05T00:16:47.117Z,7.63
2019-03-05T00:19:15.994Z,12.80
2019-03-05T00:21:44.667Z,6.80
2019-03-05T00:24:49.646Z,10.93
2019-03-05T00:27:18.298Z,11.07
2019-03-05T00:29:55.885Z,7.27
2019-03-05T00:32:24.567Z,6.00
2019-03-05T00:35:02.320Z,9.83
2019-03-05T00:37:34.405Z,12.20
2019-03-05T00:40:17.881Z,13.70
2019-03-05T00:43:01.503Z,10.17
2019-03-05T00:45:49.842Z,9.63
2019-03-05T00:48:30.260Z,8.90
2019-03-05T00:51:25.101Z,10.00
2019-03-05T00:54:08.753Z,9.43
2019-03-05T00:56:58.764Z,12.20
2019-03-05T00:59:38.720Z,6.33
2019-03-05T01:02:16.374Z,8.87
2019-03-05T01:04:48.082Z,10.87
2019-03-05T01:07:17.031Z,14.10
2019-03-05T01:09:45.660Z,8.13
2019-03-05T01:12:14.961Z,6.60
2019-03-05T01:14:44.080Z,10.93
2019-03-05T01:17:12.739Z,9.50
2019-03-05T01:19:41.367Z,6.70
2019-03-05T01:22:09.878Z,13.33
2019-03-05T01:24:38.541Z,9.40
2019-03-05T01:27:07.125Z,18.47
2019-03-05T01:29:35.809Z,7.50
2019-03-05T01:32:12.052Z,27.87
2019-03-05T01:34:42.249Z,14.53
2019-03-05T01:37:10.937Z,10.00
2019-03-05T01:39:41.146Z,30.40
2019-03-05T01:42:09.650Z,26.70
2019-03-05T01:44:38.238Z,23.30
2019-03-05T01:47:06.888Z,18.17
2019-03-05T01:49:35.466Z,6.97
2019-03-05T01:52:03.951Z,7.87
2019-03-05T01:54:32.477Z,5.97
2019-03-05T01:57:00.961Z,5.30
2019-03-05T01:59:29.631Z,5.30
2019-03-05T02:01:58.223Z,6.17
2019-03-05T02:04:26.844Z,6.40
2019-03-05T02:06:55.347Z,9.93
2019-03-05T02:09:24.275Z,6.93
2019-03-05T02:11:52.937Z,5.70
2019-03-05T02:14:21.653Z,8.17
2019-03-05T02:16:50.240Z,11.70
2019-03-05T02:19:36.447Z,6.00
2019-03-05T02:22:11.093Z,8.33
2019-03-05T02:24:59.446Z,6.80
2019-03-05T02:27:47.727Z,10.10
2019-03-05T02:30:28.296Z,7.30
2019-03-05T02:33:02.908Z,6.03
2019-03-05T02:35:39.856Z,10.23
2019-03-05T02:38:30.569Z,5.60
2019-03-05T02:41:04.983Z,11.27
2019-03-05T02:43:48.672Z,7.30
2019-03-05T02:46:35.673Z,8.60
2019-03-05T02:49:37.703Z,6.73
2019-03-05T02:52:12.165Z,9.43
2019-03-05T02:54:52.711Z,11.03
2019-03-05T02:57:20.358Z,7.80
2019-03-05T02:59:48.904Z,6.90
2019-03-05T03:02:21.919Z,10.57
2019-03-05T03:04:55.200Z,6.37
2019-03-05T03:07:23.862Z,5.00
2019-03-05T03:09:56.047Z,12.17
2019-03-05T03:12:24.996Z,6.83
2019-03-05T03:14:53.516Z,8.60
2019-03-05T03:17:22.051Z,6.70
2019-03-05T03:19:50.588Z,9.53
2019-03-05T03:22:19.134Z,7.50
2019-03-05T03:24:47.631Z,7.70
2019-03-05T03:27:16.265Z,5.70
2019-03-05T03:29:44.818Z,8.97
2019-03-05T03:32:13.419Z,6.80
2019-03-05T03:34:42.003Z,7.13
2019-03-05T03:37:10.638Z,7.47
2019-03-05T03:39:39.257Z,4.70
2019-03-05T03:42:07.894Z,8.13
2019-03-05T03:44:36.523Z,7.70
2019-03-05T03:47:05.095Z,8.13
2019-03-05T03:49:33.695Z,5.90
2019-03-05T03:52:02.261Z,6.80
2019-03-05T03:54:30.862Z,7.93
2019-03-05T03:56:59.427Z,3.73
2019-03-05T03:59:28.019Z,3.37
2019-03-05T04:01:56.687Z,5.70
2019-03-05T04:04:25.472Z,3.23
2019-03-05T04:06:54.182Z,4.33
2019-03-05T04:09:23.143Z,6.80
2019-03-05T04:11:51.757Z,3.87
2019-03-05T04:14:20.321Z,3.73
2019-03-05T04:16:48.936Z,4.93
2019-03-05T04:19:19.226Z,4.53
2019-03-05T04:21:47.846Z,17.60
2019-03-05T04:24:17.656Z,5.77
2019-03-05T04:26:46.228Z,8.53
2019-03-05T04:29:14.768Z,4.33
2019-03-05T04:31:43.721Z,6.90
2019-03-05T04:34:12.301Z,3.77
2019-03-05T04:36:40.848Z,5.30
2019-03-05T04:39:11.388Z,5.03
2019-03-05T04:41:40.449Z,4.20
2019-03-05T04:44:09.127Z,7.37
2019-03-05T04:46:37.652Z,3.80
2019-03-05T04:49:20.579Z,4.13
2019-03-05T04:51:59.572Z,4.67
2019-03-05T04:54:28.205Z,3.73
2019-03-05T04:56:56.830Z,3.87
2019-03-05T04:59:25.482Z,5.93
2019-03-05T05:01:54.098Z,4.43
2019-03-05T05:04:22.645Z,5.07
2019-03-05T05:06:51.198Z,4.20
2019-03-05T05:09:19.800Z,5.33
2019-03-05T05:11:48.389Z,4.10
2019-03-05T05:14:17.048Z,4.90
2019-03-05T05:16:45.651Z,8.20
2019-03-05T05:19:14.417Z,5.90
2019-03-05T05:21:43.044Z,8.37
2019-03-05T05:24:11.691Z,16.53
2019-03-05T05:26:40.309Z,6.67
2019-03-05T05:29:09.553Z,6.20
2019-03-05T05:31:39.038Z,5.77
2019-03-05T05:34:07.668Z,6.20
2019-03-05T05:36:36.263Z,8.43
2019-03-05T05:39:08.115Z,6.27
2019-03-05T05:41:36.725Z,6.17
2019-03-05T05:44:05.374Z,8.00
2019-03-05T05:46:33.978Z,10.33
2019-03-05T05:49:02.539Z,6.83
2019-03-05T05:51:31.249Z,8.37
2019-03-05T05:53:59.820Z,8.90
2019-03-05T05:56:28.415Z,15.40
2019-03-05T05:58:56.935Z,8.77
2019-03-05T06:01:25.777Z,13.20
2019-03-05T06:03:54.366Z,13.07
2019-03-05T06:06:22.978Z,10.10
2019-03-05T06:08:51.536Z,9.40
2019-03-05T06:11:20.077Z,12.93
2019-03-05T06:13:48.787Z,15.67
2019-03-05T06:16:17.326Z,11.57
2019-03-05T06:18:45.976Z,7.83
2019-03-05T06:21:14.575Z,11.77
2019-03-05T06:23:43.322Z,11.23
2019-03-05T06:26:11.967Z,9.57
2019-03-05T06:28:40.703Z,12.53
2019-03-05T06:31:09.212Z,10.80
2019-03-05T06:33:37.780Z,13.87
2019-03-05T06:36:06.906Z,13.60
2019-03-05T06:38:35.551Z,11.67
2019-03-05T06:41:04.156Z,18.53
2019-03-05T06:43:32.843Z,19.97
2019-03-05T06:46:01.363Z,11.77
2019-03-05T06:48:29.902Z,11.43
2019-03-05T06:50:58.406Z,17.53
2019-03-05T06:53:27.359Z,16.10
2019-03-05T06:55:55.865Z,21.03
2019-03-05T06:58:24.455Z,8.27
2019-03-05T07:00:52.970Z,11.90
2019-03-05T07:03:21.535Z,12.23
2019-03-05T07:06:26.443Z,11.23
2019-03-05T07:09:00.866Z,13.93
2019-03-05T07:11:50.419Z,22.23
2019-03-05T07:14:49.159Z,9.87
2019-03-05T07:17:26.644Z,7.60
2019-03-05T07:20:22.609Z,17.03
2019-03-05T07:22:56.943Z,19.90
2019-03-05T07:25:25.542Z,25.27
2019-03-05T07:27:54.189Z,30.23
2019-03-05T07:30:22.967Z,33.27
2019-03-05T07:32:51.896Z,12.60
2019-03-05T07:35:21.078Z,16.30
2019-03-05T07:37:49.683Z,12.90
2019-03-05T07:40:18.785Z,22.57
2019-03-05T07:42:47.765Z,13.20
2019-03-05T07:45:16.704Z,10.60
2019-03-05T07:47:45.244Z,17.70
2019-03-05T07:50:14.042Z,13.20
2019-03-05T07:52:42.599Z,17.33
2019-03-05T07:55:14.195Z,12.83
2019-03-05T07:57:43.007Z,11.33
2019-03-05T08:00:17.018Z,6.53
2019-03-05T08:02:45.585Z,8.20
2019-03-05T08:05:15.218Z,12.60
2019-03-05T08:07:44.369Z,9.00
2019-03-05T08:10:16.030Z,7.50
2019-03-05T08:13:11.903Z,8.83
2019-03-05T08:16:11.552Z,14.33
2019-03-05T08:18:40.199Z,7.60
2019-03-05T08:21:09.139Z,8.27
2019-03-05T08:23:37.703Z,8.50
2019-03-05T08:26:06.338Z,10.73
2019-03-05T08:28:34.992Z,7.57
2019-03-05T08:31:03.541Z,8.50
2019-03-05T08:33:32.105Z,6.40
2019-03-05T08:36:00.608Z,6.67
2019-03-05T08:38:29.252Z,8.63
2019-03-05T08:40:57.786Z,9.33
2019-03-05T08:43:26.459Z,7.53
2019-03-05T08:45:55.165Z,7.83
2019-03-05T08:48:23.827Z,4.20
2019-03-05T08:50:52.428Z,8.27
2019-03-05T08:53:21.192Z,7.73
2019-03-05T08:55:49.798Z,9.90
2019-03-05T08:58:18.460Z,7.83
2019-03-05T09:00:48.121Z,11.80
2019-03-05T09:03:16.985Z,7.07
2019-03-05T09:05:45.733Z,8.30
2019-03-05T09:08:14.333Z,6.57
2019-03-05T09:10:42.938Z,7.20
2019-03-05T09:13:11.504Z,7.43
2019-03-05T09:15:41.195Z,6.27
2019-03-05T09:18:09.813Z,11.00
2019-03-05T09:20:38.484Z,5.83
2019-03-05T09:23:07.066Z,8.13
2019-03-05T09:25:35.778Z,4.67
2019-03-05T09:28:07.179Z,9.13
2019-03-05T09:30:34.968Z,7.80
2019-03-05T09:33:03.563Z,6.60
2019-03-05T09:35:32.198Z,8.27
2019-03-05T09:38:00.881Z,3.70
2019-03-05T09:40:33.147Z,8.63
2019-03-05T09:43:01.707Z,5.37
2019-03-05T09:45:30.286Z,6.63
2019-03-05T09:47:59.130Z,7.67
2019-03-05T09:50:27.729Z,7.10
2019-03-05T09:52:56.541Z,8.53
2019-03-05T09:55:27.999Z,6.93
2019-03-05T09:58:07.610Z,5.43
2019-03-05T10:00:29.362Z,12.67
2019-03-05T10:02:58.195Z,5.83
2019-03-05T10:05:27.760Z,4.57
2019-03-05T10:07:56.337Z,4.93
2019-03-05T10:10:27.700Z,4.53
2019-03-05T10:12:58.885Z,5.17
2019-03-05T10:15:28.375Z,5.47
2019-03-05T10:17:57.139Z,4.67
2019-03-05T10:20:28.183Z,5.87
2019-03-05T10:22:57.999Z,4.87
2019-03-05T10:25:27.417Z,6.70
2019-03-05T10:27:56.917Z,5.83
2019-03-05T10:30:27.975Z,8.33
2019-03-05T10:33:00.026Z,4.50
2019-03-05T10:35:28.740Z,5.30
2019-03-05T10:37:59.494Z,6.27
2019-03-05T10:40:34.301Z,7.87
2019-03-05T10:43:08.802Z,4.80
2019-03-05T10:45:35.487Z,6.07
2019-03-05T10:48:04.507Z,5.43
2019-03-05T10:50:33.352Z,7.40
2019-03-05T10:53:02.442Z,7.13
2019-03-05T10:55:31.472Z,3.77
2019-03-05T10:58:00.208Z,13.13
2019-03-05T11:00:40.534Z,10.30
2019-03-05T11:03:09.252Z,7.10
2019-03-05T11:05:38.306Z,4.40
2019-03-05T11:08:07.510Z,7.63
2019-03-05T11:10:36.271Z,5.90
2019-03-05T11:13:04.911Z,9.10
2019-03-05T11:15:35.113Z,9.73
2019-03-05T11:18:08.466Z,3.13
2019-03-05T11:20:38.082Z,7.53
2019-03-05T11:23:07.561Z,4.50
2019-03-05T11:25:36.232Z,7.47
2019-03-05T11:28:05.132Z,4.33
2019-03-05T11:30:37.115Z,8.00
2019-03-05T11:33:06.249Z,5.63
2019-03-05T11:35:35.760Z,7.40
2019-03-05T11:38:04.604Z,3.93
2019-03-05T11:40:33.199Z,6.60
2019-03-05T11:43:10.443Z,12.50
2019-03-05T11:45:39.922Z,4.83
2019-03-05T11:48:09.221Z,4.17
2019-03-05T11:50:37.851Z,5.23
2019-03-05T11:53:06.456Z,5.73
2019-03-05T11:55:35.053Z,5.80
2019-03-05T11:58:03.620Z,10.13
2019-03-05T12:00:50.513Z,8.33
2019-03-05T12:03:19.035Z,5.10
2019-03-05T12:05:47.559Z,7.10
2019-03-05T12:08:16.141Z,10.50
2019-03-05T12:10:44.673Z,3.70
2019-03-05T12:13:14.618Z,9.23
2019-03-05T12:15:45.758Z,3.13
2019-03-05T12:18:14.328Z,7.10
2019-03-05T12:20:43.048Z,3.07
2019-03-05T12:23:12.003Z,10.23
2019-03-05T12:25:41.407Z,4.93
2019-03-05T12:28:11.367Z,5.27
2019-03-05T12:30:40.341Z,5.97
2019-03-05T12:33:09.002Z,11.27
2019-03-05T12:35:37.590Z,5.73
2019-03-05T12:38:06.140Z,4.73
2019-03-05T12:40:34.922Z,4.43
2019-03-05T12:43:04.050Z,7.57
2019-03-05T12:45:32.693Z,4.33
2019-03-05T12:48:01.267Z,4.30
2019-03-05T12:50:31.346Z,6.63
2019-03-05T12:53:00.204Z,8.07
2019-03-05T12:55:28.814Z,5.13
2019-03-05T12:57:57.522Z,9.63
2019-03-05T13:00:34.294Z,9.37
2019-03-05T13:03:03.386Z,5.63
2019-03-05T13:05:32.093Z,6.10
2019-03-05T13:08:01.017Z,4.67
2019-03-05T13:10:36.060Z,8.10
2019-03-05T13:13:04.596Z,6.67
2019-03-05T13:15:39.123Z,5.80
2019-03-05T13:18:07.756Z,3.70
2019-03-05T13:20:36.384Z,6.60
2019-03-05T13:23:09.595Z,4.73
2019-03-05T13:25:38.132Z,5.37
2019-03-05T13:28:05.987Z,6.40
2019-03-05T13:30:35.064Z,3.23
2019-03-05T13:33:03.658Z,6.03
2019-03-05T13:35:32.431Z,3.37
2019-03-05T13:38:06.866Z,3.87
2019-03-05T13:40:34.168Z,2.40
2019-03-05T13:43:03.514Z,3.73
2019-03-05T13:45:32.170Z,7.20
2019-03-05T13:48:14.752Z,7.27
2019-03-05T13:50:49.530Z,7.20
2019-03-05T13:53:43.955Z,8.37
2019-03-05T13:56:21.623Z,6.53
2019-03-05T13:59:02.340Z,7.53
2019-03-05T14:01:31.361Z,5.00
2019-03-05T14:04:08.438Z,5.67
2019-03-05T14:06:43.035Z,5.07
2019-03-05T14:09:14.225Z,4.07
2019-03-05T14:11:44.586Z,8.73
2019-03-05T14:14:16.566Z,6.77
2019-03-05T14:16:46.077Z,7.60
2019-03-05T14:19:14.797Z,6.23
2019-03-05T14:21:43.826Z,4.33
2019-03-05T14:24:12.483Z,3.60
2019-03-05T14:26:41.276Z,4.10
2019-03-05T14:29:09.993Z,5.87
2019-03-05T14:31:38.574Z,7.47
2019-03-05T14:34:07.249Z,5.23
2019-03-05T14:36:35.955Z,5.87
2019-03-05T14:39:09.448Z,4.50
2019-03-05T14:41:38.514Z,4.13
2019-03-05T14:44:07.615Z,4.10
2019-03-05T14:46:36.983Z,4.10
2019-03-05T14:49:05.904Z,3.90
2019-03-05T14:51:34.496Z,4.40
2019-03-05T14:54:03.095Z,2.93
2019-03-05T14:56:32.179Z,6.20
2019-03-05T14:59:00.833Z,2.80
2019-03-05T15:01:30.921Z,4.40
2019-03-05T15:03:59.479Z,5.30
2019-03-05T15:06:28.231Z,4.47
2019-03-05T15:08:57.030Z,3.97
2019-03-05T15:11:26.042Z,5.30
2019-03-05T15:13:54.728Z,4.77
2019-03-05T15:16:23.485Z,5.00
2019-03-05T15:18:52.049Z,4.17
2019-03-05T15:21:21.108Z,4.37
2019-03-05T15:23:49.699Z,3.77
2019-03-05T15:26:18.714Z,4.53
2019-03-05T15:28:56.094Z,6.90
2019-03-05T15:31:18.791Z,6.27
2019-03-05T15:33:47.400Z,6.90
2019-03-05T15:36:23.724Z,4.47
2019-03-05T15:38:46.390Z,4.50
2019-03-05T15:41:15.383Z,8.07
2019-03-05T15:43:44.420Z,7.57
2019-03-05T15:46:13.881Z,4.67
2019-03-05T15:48:42.677Z,4.00
2019-03-05T15:51:12.429Z,3.67
2019-03-05T15:53:41.558Z,4.10
2019-03-05T15:56:10.176Z,2.60
2019-03-05T15:58:39.210Z,4.13
2019-03-05T16:01:09.912Z,2.60
2019-03-05T16:03:39.192Z,3.87
2019-03-05T16:06:08.146Z,3.90
2019-03-05T16:08:37.143Z,4.37
2019-03-05T16:11:05.929Z,3.50
2019-03-05T16:13:34.811Z,3.50
2019-03-05T16:16:03.696Z,3.73
2019-03-05T16:18:32.625Z,2.63
2019-03-05T16:21:02.427Z,9.50
2019-03-05T16:23:31.626Z,4.17
2019-03-05T16:26:00.814Z,3.60
2019-03-05T16:28:29.975Z,7.73
2019-03-05T16:31:00.367Z,5.80
2019-03-05T16:33:39.739Z,2.13
2019-03-05T16:36:15.997Z,2.67
2019-03-05T16:39:02.776Z,2.80
2019-03-05T16:41:38.832Z,4.30
2019-03-05T16:44:21.917Z,3.80
2019-03-05T16:46:52.629Z,3.17
2019-03-05T16:49:32.278Z,9.93
2019-03-05T16:52:19.205Z,8.07
2019-03-05T16:55:07.244Z,2.40
2019-03-05T16:57:37.573Z,2.67
2019-03-05T17:00:15.990Z,3.53
2019-03-05T17:02:46.299Z,2.20
2019-03-05T17:05:38.437Z,3.27
2019-03-05T17:08:14.903Z,5.43
2019-03-05T17:10:45.521Z,8.93
2019-03-05T17:13:15.209Z,3.10
2019-03-05T17:15:43.863Z,3.27
2019-03-05T17:18:12.511Z,5.57
2019-03-05T17:20:41.535Z,4.70
2019-03-05T17:23:11.013Z,7.43
2019-03-05T17:25:39.773Z,2.53
2019-03-05T17:28:09.231Z,4.67
2019-03-05T17:30:38.931Z,3.10
2019-03-05T17:33:08.228Z,4.40
2019-03-05T17:35:37.333Z,3.43
2019-03-05T17:38:06.408Z,6.10
2019-03-05T17:40:35.132Z,4.67
2019-03-05T17:43:03.978Z,7.73
2019-03-05T17:45:33.210Z,5.67
2019-03-05T17:48:01.867Z,6.10
2019-03-05T17:50:31.221Z,3.60
2019-03-05T17:53:01.235Z,4.80
2019-03-05T17:55:30.363Z,9.00
2019-03-05T17:57:59.261Z,5.37
2019-03-05T18:00:30.314Z,4.10
2019-03-05T18:02:58.858Z,5.73
2019-03-05T18:05:27.582Z,4.83
2019-03-05T18:07:58.855Z,4.20
2019-03-05T18:10:27.881Z,5.03
2019-03-05T18:12:56.753Z,10.30
2019-03-05T18:15:26.421Z,4.20
2019-03-05T18:17:55.143Z,4.23
2019-03-05T18:20:25.235Z,5.87
2019-03-05T18:22:54.019Z,4.63
2019-03-05T18:25:22.846Z,6.63
2019-03-05T18:27:51.452Z,6.57
2019-03-05T18:30:25.710Z,6.23
2019-03-05T18:32:56.027Z,5.63
2019-03-05T18:35:24.651Z,7.30
2019-03-05T18:37:54.345Z,7.63
2019-03-05T18:40:24.716Z,6.57
2019-03-05T18:42:54.000Z,6.57
2019-03-05T18:45:28.147Z,9.57
2019-03-05T18:47:57.352Z,8.87
2019-03-05T18:50:28.289Z,8.60
2019-03-05T18:52:59.736Z,8.20
2019-03-05T18:55:28.797Z,5.80
2019-03-05T18:57:58.289Z,10.90
2019-03-05T19:00:29.640Z,8.50
2019-03-05T19:03:05.399Z,6.87
2019-03-05T19:05:35.767Z,6.60
2019-03-05T19:08:06.211Z,8.80
2019-03-05T19:10:35.077Z,11.90
2019-03-05T19:13:04.669Z,7.73
2019-03-05T19:15:33.785Z,8.93
2019-03-05T19:18:03.643Z,14.23
2019-03-05T19:20:33.942Z,10.53
2019-03-05T19:23:03.285Z,9.07
2019-03-05T19:25:39.927Z,9.00
2019-03-05T19:28:08.927Z,10.07
2019-03-05T19:30:51.640Z,8.80
2019-03-05T19:33:20.376Z,10.87
2019-03-05T19:35:49.018Z,10.30
2019-03-05T19:38:20.232Z,11.50
2019-03-05T19:40:49.253Z,10.00
2019-03-05T19:43:18.254Z,14.30
2019-03-05T19:45:46.915Z,18.37
2019-03-05T19:48:15.800Z,12.30
2019-03-05T19:50:44.798Z,16.20
2019-03-05T19:53:15.017Z,16.60
2019-03-05T19:55:44.328Z,10.47
2019-03-05T19:58:15.133Z,9.87
2019-03-05T20:00:56.209Z,8.80
2019-03-05T20:03:25.000Z,8.43
2019-03-05T20:05:54.057Z,12.77
2019-03-05T20:08:23.291Z,9.00
2019-03-05T20:10:53.116Z,9.13
2019-03-05T20:13:21.913Z,9.23
2019-03-05T20:15:50.593Z,11.17
2019-03-05T20:18:19.275Z,11.20
2019-03-05T20:20:48.299Z,13.63
2019-03-05T20:23:17.005Z,14.73
2019-03-05T20:25:45.633Z,12.40
2019-03-05T20:28:14.304Z,14.20
2019-03-05T20:30:43.646Z,11.87
2019-03-05T20:33:13.745Z,11.50
2019-03-05T20:35:43.083Z,10.37
2019-03-05T20:38:11.721Z,23.50
2019-03-05T20:40:41.986Z,10.67
2019-03-05T20:43:10.916Z,13.10
2019-03-05T20:45:45.364Z,16.63
2019-03-05T20:48:14.936Z,12.90
2019-03-05T20:50:43.646Z,9.20
2019-03-05T20:53:12.489Z,18.23
2019-03-05T20:55:41.173Z,20.10
2019-03-05T20:58:09.861Z,14.30
2019-03-05T21:00:40.200Z,10.50
2019-03-05T21:03:10.780Z,15.10
2019-03-05T21:05:41.593Z,11.77
2019-03-05T21:08:11.500Z,13.17
2019-03-05T21:10:40.411Z,17.20
2019-03-05T21:13:10.491Z,15.70
2019-03-05T21:15:39.225Z,11.07
2019-03-05T21:18:13.171Z,11.97
2019-03-05T21:20:42.044Z,13.00
2019-03-05T21:23:10.837Z,12.80
2019-03-05T21:25:39.624Z,12.87
2019-03-05T21:28:08.307Z,12.57
2019-03-05T21:30:37.386Z,9.73
2019-03-05T21:33:06.345Z,11.40
2019-03-05T21:35:34.991Z,12.27
2019-03-05T21:38:03.944Z,12.43
2019-03-05T21:40:34.141Z,13.13
2019-03-05T21:43:02.894Z,14.00
2019-03-05T21:45:45.772Z,12.90
2019-03-05T21:48:14.514Z,17.53
2019-03-05T21:50:43.166Z,20.37
2019-03-05T21:53:12.306Z,17.27
2019-03-05T21:55:41.278Z,18.73
2019-03-05T21:58:10.264Z,15.63
2019-03-05T22:00:40.921Z,11.63
2019-03-05T22:03:09.504Z,12.80
2019-03-05T22:05:38.171Z,13.00
2019-03-05T22:08:06.763Z,12.27
2019-03-05T22:10:35.702Z,10.27
2019-03-05T22:13:04.712Z,9.97
2019-03-05T22:15:34.842Z,13.53
2019-03-05T22:18:03.560Z,10.40
2019-03-05T22:20:32.135Z,21.03
2019-03-05T22:23:00.988Z,10.30
2019-03-05T22:25:30.112Z,11.13
2019-03-05T22:27:59.085Z,11.10
2019-03-05T22:30:40.044Z,8.60
2019-03-05T22:33:08.916Z,9.00
2019-03-05T22:35:37.467Z,10.33
2019-03-05T22:38:06.189Z,13.77
2019-03-05T22:40:34.748Z,15.13
2019-03-05T22:43:03.361Z,10.70
2019-03-05T22:45:36.037Z,12.93
2019-03-05T22:48:04.735Z,12.40
2019-03-05T22:50:33.318Z,13.57
2019-03-05T22:53:01.935Z,8.13
2019-03-05T22:55:30.542Z,14.20
2019-03-05T22:57:59.288Z,20.00
2019-03-05T23:00:52.012Z,13.23
2019-03-05T23:03:23.765Z,13.97
2019-03-05T23:05:52.770Z,11.80
2019-03-05T23:08:22.340Z,13.80
2019-03-05T23:10:51.128Z,11.57
2019-03-05T23:13:20.082Z,12.67
2019-03-05T23:15:48.942Z,12.43
2019-03-05T23:18:17.737Z,13.00
2019-03-05T23:20:46.569Z,12.60
2019-03-05T23:23:15.267Z,12.03
2019-03-05T23:25:44.343Z,10.90
2019-03-05T23:28:13.018Z,14.37
2019-03-05T23:30:41.891Z,15.20
2019-03-05T23:33:10.557Z,14.13
2019-03-05T23:35:40.106Z,15.53
2019-03-05T23:38:08.695Z,11.73
2019-03-05T23:40:37.264Z,11.97
2019-03-05T23:43:06.237Z,12.80
2019-03-05T23:45:35.311Z,15.40
2019-03-05T23:48:04.043Z,12.83
2019-03-05T23:50:32.639Z,20.33
2019-03-05T23:53:01.332Z,14.37
2019-03-05T23:55:30.204Z,13.90
2019-03-05T23:57:58.913Z,15.33
